createdAt,value
2017-01-25T00:00:40.526Z,1005.43
2017-01-25T00:01:40.551Z,1005.48
2017-01-25T00:02:40.576Z,1005.51
2017-01-25T00:03:40.854Z,1005.48
2017-01-25T00:04:40.630Z,1005.46
2017-01-25T00:05:40.654Z,1005.42
2017-01-25T00:06:40.684Z,1005.46
2017-01-25T00:07:40.703Z,1005.46
2017-01-25T00:08:40.984Z,1005.4
2017-01-25T00:09:40.757Z,1005.39
2017-01-25T00:10:40.785Z,1005.4
2017-01-25T00:11:40.811Z,1005.4
2017-01-25T00:12:40.835Z,1005.44
2017-01-25T00:13:41.112Z,1005.42
2017-01-25T00:14:40.889Z,1005.45
2017-01-25T00:15:40.914Z,1005.45
2017-01-25T00:16:40.939Z,1005.41
2017-01-25T00:17:40.963Z,1005.38
2017-01-25T00:18:41.243Z,1005.36
2017-01-25T00:19:41.017Z,1005.38
2017-01-25T00:20:41.041Z,1005.4
2017-01-25T00:21:41.072Z,1005.4
2017-01-25T00:22:41.092Z,1005.42
2017-01-25T00:23:41.370Z,1005.42
2017-01-25T00:24:41.144Z,1005.37
2017-01-25T00:25:41.172Z,1005.34
2017-01-25T00:26:41.197Z,1005.38
2017-01-25T00:27:41.222Z,1005.37
2017-01-25T00:28:41.507Z,1005.33
2017-01-25T00:29:41.276Z,1005.33
2017-01-25T00:30:41.299Z,1005.28
2017-01-25T00:31:41.324Z,1005.32
2017-01-25T00:32:41.354Z,1005.28
2017-01-25T00:33:41.635Z,1005.33
2017-01-25T00:34:41.399Z,1005.34
2017-01-25T00:35:41.430Z,1005.39
2017-01-25T00:36:41.457Z,1005.35
2017-01-25T00:37:41.482Z,1005.36
2017-01-25T00:38:41.506Z,1005.38
2017-01-25T00:39:41.532Z,1005.33
2017-01-25T00:40:41.559Z,1005.35
2017-01-25T00:41:41.585Z,1005.37
2017-01-25T00:42:41.609Z,1005.31
2017-01-25T00:43:41.634Z,1005.33
2017-01-25T00:44:41.657Z,1005.33
2017-01-25T00:45:41.684Z,1005.36
2017-01-25T00:46:41.712Z,1005.36
2017-01-25T00:47:41.737Z,1005.36
2017-01-25T00:48:41.761Z,1005.33
2017-01-25T00:49:41.791Z,1005.31
2017-01-25T00:50:41.816Z,1005.32
2017-01-25T00:51:41.835Z,1005.38
2017-01-25T00:52:41.863Z,1005.34
2017-01-25T00:53:41.893Z,1005.35
2017-01-25T00:54:41.917Z,1005.35
2017-01-25T00:55:41.939Z,1005.35
2017-01-25T00:56:41.972Z,1005.33
2017-01-25T00:57:41.996Z,1005.37
2017-01-25T00:58:42.021Z,1005.3
2017-01-25T00:59:42.297Z,1005.36
2017-01-25T01:00:42.072Z,1005.36
2017-01-25T01:01:42.095Z,1005.35
2017-01-25T01:02:42.122Z,1005.37
2017-01-25T01:03:42.149Z,1005.33
2017-01-25T01:04:42.425Z,1005.34
2017-01-25T01:05:42.194Z,1005.34
2017-01-25T01:06:42.226Z,1005.3
2017-01-25T01:07:42.252Z,1005.32
2017-01-25T01:08:42.278Z,1005.29
2017-01-25T01:09:42.553Z,1005.28
2017-01-25T01:10:42.326Z,1005.31
2017-01-25T01:11:42.345Z,1005.36
2017-01-25T01:12:42.380Z,1005.37
2017-01-25T01:13:42.404Z,1005.29
2017-01-25T01:14:42.429Z,1005.3
2017-01-25T01:15:42.453Z,1005.29
2017-01-25T01:16:42.478Z,1005.32
2017-01-25T01:17:42.507Z,1005.29
2017-01-25T01:18:42.531Z,1005.26
2017-01-25T01:19:42.556Z,1005.3
2017-01-25T01:20:42.582Z,1005.28
2017-01-25T01:21:42.606Z,1005.25
2017-01-25T01:22:42.634Z,1005.26
2017-01-25T01:23:42.659Z,1005.23
2017-01-25T01:24:42.679Z,1005.29
2017-01-25T01:25:42.708Z,1005.25
2017-01-25T01:26:42.735Z,1005.22
2017-01-25T01:27:42.773Z,1005.23
2017-01-25T01:28:42.789Z,1005.25
2017-01-25T01:29:42.816Z,1005.26
2017-01-25T01:30:42.836Z,1005.28
2017-01-25T01:31:42.860Z,1005.26
2017-01-25T01:32:42.886Z,1005.21
2017-01-25T01:33:42.917Z,1005.22
2017-01-25T01:34:42.939Z,1005.2
2017-01-25T01:35:42.965Z,1005.2
2017-01-25T01:36:42.989Z,1005.17
2017-01-25T01:37:43.014Z,1005.12
2017-01-25T01:38:43.042Z,1005.08
2017-01-25T01:39:43.066Z,1005.09
2017-01-25T01:40:43.088Z,1005.1
2017-01-25T01:41:43.112Z,1005.09
2017-01-25T01:42:43.141Z,1005.14
2017-01-25T01:43:43.166Z,1005.15
2017-01-25T01:44:43.191Z,1005.15
2017-01-25T01:45:43.218Z,1005.18
2017-01-25T01:46:43.245Z,1005.12
2017-01-25T01:47:43.269Z,1005.13
2017-01-25T01:48:43.290Z,1005.12
2017-01-25T01:49:43.315Z,1005.12
2017-01-25T01:50:43.595Z,1005.1
2017-01-25T01:51:43.372Z,1005.08
2017-01-25T01:52:43.392Z,1005.07
2017-01-25T01:53:43.421Z,1005.13
2017-01-25T01:54:43.447Z,1005.11
2017-01-25T01:55:43.470Z,1005.08
2017-01-25T01:56:43.499Z,1005.06
2017-01-25T01:57:43.527Z,1005.07
2017-01-25T01:58:43.545Z,1005.02
2017-01-25T01:59:43.573Z,1005.04
2017-01-25T02:00:43.598Z,1005.04
2017-01-25T02:01:43.623Z,1005.08
2017-01-25T02:02:43.648Z,1005.06
2017-01-25T02:03:43.681Z,1005.02
2017-01-25T02:04:43.698Z,1005.05
2017-01-25T02:05:43.726Z,1005
2017-01-25T02:06:43.749Z,1005.04
2017-01-25T02:07:43.775Z,1004.97
2017-01-25T02:08:43.826Z,1005.04
2017-01-25T02:09:43.821Z,1005.05
2017-01-25T02:10:43.851Z,1005.05
2017-01-25T02:11:43.879Z,1005.05
2017-01-25T02:12:43.904Z,1005.01
2017-01-25T02:13:43.923Z,1005
2017-01-25T02:14:43.953Z,1005.04
2017-01-25T02:15:43.974Z,1005.05
2017-01-25T02:16:44.002Z,1005.1
2017-01-25T02:17:44.033Z,1005.06
2017-01-25T02:18:44.056Z,1005.09
2017-01-25T02:19:44.080Z,1005.05
2017-01-25T02:20:44.105Z,1005.05
2017-01-25T02:21:44.131Z,1005.06
2017-01-25T02:22:44.155Z,1005.06
2017-01-25T02:23:44.183Z,1005.07
2017-01-25T02:24:44.209Z,1005.06
2017-01-25T02:25:44.233Z,1005.07
2017-01-25T02:26:44.252Z,1005.1
2017-01-25T02:27:44.283Z,1005.1
2017-01-25T02:28:44.309Z,1005.11
2017-01-25T02:29:44.332Z,1005.13
2017-01-25T02:30:44.354Z,1005.18
2017-01-25T02:31:44.385Z,1005.17
2017-01-25T02:32:44.410Z,1005.18
2017-01-25T02:33:44.435Z,1005.21
2017-01-25T02:34:44.460Z,1005.26
2017-01-25T02:35:44.483Z,1005.27
2017-01-25T02:36:44.509Z,1005.31
2017-01-25T02:37:44.538Z,1005.3
2017-01-25T02:38:44.560Z,1005.24
2017-01-25T02:39:44.587Z,1005.26
2017-01-25T02:40:44.612Z,1005.22
2017-01-25T02:41:44.638Z,1005.29
2017-01-25T02:42:44.662Z,1005.25
2017-01-25T02:43:44.681Z,1005.26
2017-01-25T02:44:44.710Z,1005.28
2017-01-25T02:45:44.736Z,1005.28
2017-01-25T02:46:44.760Z,1005.31
2017-01-25T02:47:44.789Z,1005.22
2017-01-25T02:48:44.813Z,1005.28
2017-01-25T02:49:44.835Z,1005.26
2017-01-25T02:50:44.863Z,1005.28
2017-01-25T02:51:44.888Z,1005.3
2017-01-25T02:52:44.913Z,1005.24
2017-01-25T02:53:44.937Z,1005.28
2017-01-25T02:54:44.962Z,1005.27
2017-01-25T02:55:44.990Z,1005.29
2017-01-25T02:56:45.015Z,1005.28
2017-01-25T02:57:45.038Z,1005.28
2017-01-25T02:58:45.067Z,1005.3
2017-01-25T02:59:45.090Z,1005.34
2017-01-25T03:00:45.111Z,1005.32
2017-01-25T03:01:45.139Z,1005.32
2017-01-25T03:02:45.164Z,1005.42
2017-01-25T03:03:45.189Z,1005.45
2017-01-25T03:04:45.213Z,1005.38
2017-01-25T03:05:45.242Z,1005.42
2017-01-25T03:06:45.267Z,1005.35
2017-01-25T03:07:45.292Z,1005.36
2017-01-25T03:08:45.318Z,1005.36
2017-01-25T03:09:45.339Z,1005.41
2017-01-25T03:10:45.363Z,1005.39
2017-01-25T03:11:45.642Z,1005.36
2017-01-25T03:12:45.416Z,1005.41
2017-01-25T03:13:45.436Z,1005.33
2017-01-25T03:14:45.468Z,1005.32
2017-01-25T03:15:45.489Z,1005.3
2017-01-25T03:16:45.518Z,1005.24
2017-01-25T03:17:45.539Z,1005.3
2017-01-25T03:18:45.567Z,1005.33
2017-01-25T03:19:45.592Z,1005.3
2017-01-25T03:20:45.617Z,1005.32
2017-01-25T03:21:45.645Z,1005.34
2017-01-25T03:22:45.686Z,1005.34
2017-01-25T03:23:45.692Z,1005.22
2017-01-25T03:24:45.713Z,1005.36
2017-01-25T03:25:45.735Z,1005.22
2017-01-25T03:26:45.764Z,1005.3
2017-01-25T03:27:45.793Z,1005.22
2017-01-25T03:28:45.815Z,1005.24
2017-01-25T03:29:45.843Z,1005.26
2017-01-25T03:30:45.867Z,1005.3
2017-01-25T03:31:45.893Z,1005.18
2017-01-25T03:32:45.918Z,1005.27
2017-01-25T03:33:45.942Z,1005.17
2017-01-25T03:34:45.963Z,1005.19
2017-01-25T03:35:45.992Z,1005.18
2017-01-25T03:36:46.016Z,1005.2
2017-01-25T03:37:46.041Z,1005.21
2017-01-25T03:38:46.066Z,1005.2
2017-01-25T03:39:46.091Z,1005.22
2017-01-25T03:40:46.118Z,1005.23
2017-01-25T03:41:46.141Z,1005.27
2017-01-25T03:42:46.170Z,1005.23
2017-01-25T03:43:46.194Z,1005.23
2017-01-25T03:44:46.218Z,1005.23
2017-01-25T03:45:46.243Z,1005.28
2017-01-25T03:46:46.268Z,1005.23
2017-01-25T03:47:46.297Z,1005.29
2017-01-25T03:48:46.318Z,1005.23
2017-01-25T03:49:46.343Z,1005.3
2017-01-25T03:50:46.365Z,1005.21
2017-01-25T03:51:46.392Z,1005.27
2017-01-25T03:52:46.417Z,1005.2
2017-01-25T03:53:46.441Z,1005.19
2017-01-25T03:54:46.467Z,1005.23
2017-01-25T03:55:46.489Z,1005.2
2017-01-25T03:56:46.515Z,1005.19
2017-01-25T03:57:46.540Z,1005.17
2017-01-25T03:58:46.569Z,1005.18
2017-01-25T03:59:46.593Z,1005.23
2017-01-25T04:00:46.921Z,1005.22
2017-01-25T04:01:46.643Z,1005.21
2017-01-25T04:02:46.668Z,1005.27
2017-01-25T04:03:46.692Z,1005.25
2017-01-25T04:04:46.717Z,1005.31
2017-01-25T04:05:46.737Z,1005.24
2017-01-25T04:06:46.767Z,1005.27
2017-01-25T04:07:46.795Z,1005.26
2017-01-25T04:08:46.816Z,1005.29
2017-01-25T04:09:46.845Z,1005.27
2017-01-25T04:10:46.865Z,1005.3
2017-01-25T04:11:46.894Z,1005.29
2017-01-25T04:12:46.919Z,1005.32
2017-01-25T04:13:46.941Z,1005.26
2017-01-25T04:14:46.969Z,1005.25
2017-01-25T04:15:46.994Z,1005.24
2017-01-25T04:16:47.018Z,1005.32
2017-01-25T04:17:47.042Z,1005.32
2017-01-25T04:18:47.113Z,1005.24
2017-01-25T04:19:47.092Z,1005.29
2017-01-25T04:20:47.117Z,1005.28
2017-01-25T04:21:47.141Z,1005.3
2017-01-25T04:22:47.165Z,1005.34
2017-01-25T04:23:47.191Z,1005.31
2017-01-25T04:24:47.216Z,1005.32
2017-01-25T04:25:47.240Z,1005.31
2017-01-25T04:26:47.261Z,1005.34
2017-01-25T04:27:47.291Z,1005.29
2017-01-25T04:28:47.315Z,1005.36
2017-01-25T04:29:47.339Z,1005.36
2017-01-25T04:30:47.364Z,1005.37
2017-01-25T04:31:47.389Z,1005.37
2017-01-25T04:32:47.413Z,1005.38
2017-01-25T04:33:47.438Z,1005.39
2017-01-25T04:34:47.463Z,1005.37
2017-01-25T04:35:47.487Z,1005.31
2017-01-25T04:36:47.512Z,1005.29
2017-01-25T04:37:47.793Z,1005.33
2017-01-25T04:38:47.566Z,1005.33
2017-01-25T04:39:47.586Z,1005.26
2017-01-25T04:40:47.615Z,1005.28
2017-01-25T04:41:47.639Z,1005.35
2017-01-25T04:42:47.912Z,1005.3
2017-01-25T04:43:47.689Z,1005.26
2017-01-25T04:44:47.714Z,1005.29
2017-01-25T04:45:47.739Z,1005.28
2017-01-25T04:46:47.763Z,1005.27
2017-01-25T04:47:47.787Z,1005.29
2017-01-25T04:48:47.812Z,1005.23
2017-01-25T04:49:47.833Z,1005.33
2017-01-25T04:50:47.862Z,1005.29
2017-01-25T04:51:47.912Z,1005.25
2017-01-25T04:52:47.916Z,1005.21
2017-01-25T04:53:47.959Z,1005.2
2017-01-25T04:54:47.961Z,1005.17
2017-01-25T04:55:47.982Z,1005.2
2017-01-25T04:56:48.011Z,1005.18
2017-01-25T04:57:48.036Z,1005.18
2017-01-25T04:58:48.062Z,1005.18
2017-01-25T04:59:48.084Z,1005.15
2017-01-25T05:00:48.109Z,1005.1
2017-01-25T05:01:48.134Z,1005.12
2017-01-25T05:02:48.159Z,1005.14
2017-01-25T05:03:48.184Z,1005.1
2017-01-25T05:04:48.213Z,1005.14
2017-01-25T05:05:48.233Z,1005.06
2017-01-25T05:06:48.273Z,1005.09
2017-01-25T05:07:48.279Z,1005.08
2017-01-25T05:08:48.308Z,1005.03
2017-01-25T05:09:48.333Z,1005.04
2017-01-25T05:10:48.357Z,1005.07
2017-01-25T05:11:48.381Z,1005.11
2017-01-25T05:12:48.402Z,1005.1
2017-01-25T05:13:48.435Z,1005.11
2017-01-25T05:14:48.460Z,1005.09
2017-01-25T05:15:48.481Z,1005.09
2017-01-25T05:16:48.505Z,1005.13
2017-01-25T05:17:48.526Z,1005.11
2017-01-25T05:18:48.550Z,1005.09
2017-01-25T05:19:48.580Z,1005.15
2017-01-25T05:20:48.604Z,1005.15
2017-01-25T05:21:48.629Z,1005.2
2017-01-25T05:22:48.649Z,1005.18
2017-01-25T05:23:48.681Z,1005.15
2017-01-25T05:24:48.703Z,1005.15
2017-01-25T05:25:48.724Z,1005.17
2017-01-25T05:26:48.753Z,1005.18
2017-01-25T05:27:48.777Z,1005.19
2017-01-25T05:28:48.802Z,1005.19
2017-01-25T05:29:48.826Z,1005.17
2017-01-25T05:30:48.851Z,1005.22
2017-01-25T05:31:48.876Z,1005.24
2017-01-25T05:32:48.896Z,1005.24
2017-01-25T05:33:48.925Z,1005.19
2017-01-25T05:34:48.948Z,1005.19
2017-01-25T05:35:48.975Z,1005.18
2017-01-25T05:36:48.999Z,1005.21
2017-01-25T05:37:49.024Z,1005.2
2017-01-25T05:38:49.050Z,1005.14
2017-01-25T05:39:49.073Z,1005.2
2017-01-25T05:40:49.098Z,1005.2
2017-01-25T05:41:49.122Z,1005.2
2017-01-25T05:42:49.147Z,1005.19
2017-01-25T05:43:49.422Z,1005.19
2017-01-25T05:44:49.196Z,1005.24
2017-01-25T05:45:49.219Z,1005.23
2017-01-25T05:46:49.245Z,1005.23
2017-01-25T05:47:49.271Z,1005.22
2017-01-25T05:48:49.547Z,1005.23
2017-01-25T05:49:49.321Z,1005.25
2017-01-25T05:50:49.344Z,1005.26
2017-01-25T05:51:49.369Z,1005.26
2017-01-25T05:52:49.394Z,1005.26
2017-01-25T05:53:49.677Z,1005.31
2017-01-25T05:54:49.443Z,1005.31
2017-01-25T05:55:49.493Z,1005.3
2017-01-25T05:56:49.493Z,1005.31
2017-01-25T05:57:49.519Z,1005.3
2017-01-25T05:58:49.547Z,1005.34
2017-01-25T05:59:49.567Z,1005.35
2017-01-25T06:00:49.596Z,1005.34
2017-01-25T06:01:49.620Z,1005.3
2017-01-25T06:02:49.648Z,1005.36
2017-01-25T06:03:49.666Z,1005.34
2017-01-25T06:04:49.696Z,1005.38
2017-01-25T06:05:49.724Z,1005.39
2017-01-25T06:06:49.741Z,1005.36
2017-01-25T06:07:49.769Z,1005.4
2017-01-25T06:08:49.794Z,1005.38
2017-01-25T06:09:49.819Z,1005.41
2017-01-25T06:10:49.843Z,1005.4
2017-01-25T06:11:49.868Z,1005.38
2017-01-25T06:12:49.892Z,1005.44
2017-01-25T06:13:49.922Z,1005.45
2017-01-25T06:14:49.942Z,1005.5
2017-01-25T06:15:49.967Z,1005.49
2017-01-25T06:16:49.992Z,1005.46
2017-01-25T06:17:50.014Z,1005.51
2017-01-25T06:18:50.041Z,1005.58
2017-01-25T06:19:50.066Z,1005.49
2017-01-25T06:20:50.090Z,1005.49
2017-01-25T06:21:50.116Z,1005.5
2017-01-25T06:22:50.145Z,1005.49
2017-01-25T06:23:50.169Z,1005.52
2017-01-25T06:24:50.190Z,1005.51
2017-01-25T06:25:50.217Z,1005.5
2017-01-25T06:26:50.242Z,1005.51
2017-01-25T06:27:50.269Z,1005.51
2017-01-25T06:28:50.295Z,1005.48
2017-01-25T06:29:50.317Z,1005.51
2017-01-25T06:30:50.341Z,1005.47
2017-01-25T06:31:50.363Z,1005.49
2017-01-25T06:32:50.396Z,1005.45
2017-01-25T06:33:50.413Z,1005.47
2017-01-25T06:34:50.692Z,1005.45
2017-01-25T06:35:50.479Z,1005.43
2017-01-25T06:36:50.503Z,1005.4
2017-01-25T06:37:50.529Z,1005.36
2017-01-25T06:38:50.552Z,1005.4
2017-01-25T06:39:50.578Z,1005.35
2017-01-25T06:40:50.607Z,1005.32
2017-01-25T06:41:50.631Z,1005.32
2017-01-25T06:42:50.657Z,1005.34
2017-01-25T06:43:50.668Z,1005.3
2017-01-25T06:44:50.692Z,1005.34
2017-01-25T06:45:50.717Z,1005.34
2017-01-25T06:46:50.741Z,1005.36
2017-01-25T06:47:50.767Z,1005.39
2017-01-25T06:48:50.791Z,1005.38
2017-01-25T06:49:50.814Z,1005.36
2017-01-25T06:50:50.840Z,1005.42
2017-01-25T06:51:50.868Z,1005.36
2017-01-25T06:52:50.895Z,1005.42
2017-01-25T06:53:50.947Z,1005.46
2017-01-25T06:54:50.944Z,1005.5
2017-01-25T06:55:50.965Z,1005.47
2017-01-25T06:56:50.990Z,1005.49
2017-01-25T06:57:51.034Z,1005.52
2017-01-25T06:58:51.042Z,1005.51
2017-01-25T06:59:51.064Z,1005.52
2017-01-25T07:00:51.096Z,1005.52
2017-01-25T07:01:51.116Z,1005.49
2017-01-25T07:02:51.144Z,1005.53
2017-01-25T07:03:51.163Z,1005.54
2017-01-25T07:04:51.196Z,1005.53
2017-01-25T07:05:51.220Z,1005.58
2017-01-25T07:06:51.242Z,1005.55
2017-01-25T07:07:51.267Z,1005.59
2017-01-25T07:08:51.294Z,1005.58
2017-01-25T07:09:51.320Z,1005.58
2017-01-25T07:10:51.344Z,1005.65
2017-01-25T07:11:51.368Z,1005.6
2017-01-25T07:12:51.394Z,1005.64
2017-01-25T07:13:51.419Z,1005.71
2017-01-25T07:14:51.443Z,1005.6
2017-01-25T07:15:51.472Z,1005.7
2017-01-25T07:16:51.497Z,1005.75
2017-01-25T07:17:51.521Z,1005.71
2017-01-25T07:18:51.546Z,1005.74
2017-01-25T07:19:51.571Z,1005.69
2017-01-25T07:20:51.847Z,1005.7
2017-01-25T07:21:51.621Z,1005.7
2017-01-25T07:22:51.645Z,1005.68
2017-01-25T07:23:51.670Z,1005.72
2017-01-25T07:24:51.699Z,1005.68
2017-01-25T07:25:51.975Z,1005.69
2017-01-25T07:26:51.748Z,1005.72
2017-01-25T07:27:51.774Z,1005.73
2017-01-25T07:28:51.798Z,1005.73
2017-01-25T07:29:51.823Z,1005.72
2017-01-25T07:30:52.101Z,1005.72
2017-01-25T07:31:51.873Z,1005.7
2017-01-25T07:32:51.899Z,1005.68
2017-01-25T07:33:51.926Z,1005.76
2017-01-25T07:34:51.947Z,1005.73
2017-01-25T07:35:52.224Z,1005.72
2017-01-25T07:36:51.998Z,1005.75
2017-01-25T07:37:52.024Z,1005.71
2017-01-25T07:38:52.046Z,1005.72
2017-01-25T07:39:52.074Z,1005.76
2017-01-25T07:40:52.355Z,1005.79
2017-01-25T07:41:52.124Z,1005.81
2017-01-25T07:42:52.149Z,1005.8
2017-01-25T07:43:52.178Z,1005.78
2017-01-25T07:44:52.197Z,1005.75
2017-01-25T07:45:52.475Z,1005.83
2017-01-25T07:46:52.256Z,1005.86
2017-01-25T07:47:52.276Z,1005.84
2017-01-25T07:48:52.308Z,1005.85
2017-01-25T07:49:52.327Z,1005.91
2017-01-25T07:50:52.599Z,1005.86
2017-01-25T07:51:52.375Z,1005.89
2017-01-25T07:52:52.400Z,1005.85
2017-01-25T07:53:52.429Z,1005.84
2017-01-25T07:54:52.453Z,1005.84
2017-01-25T07:55:52.727Z,1005.82
2017-01-25T07:56:52.502Z,1005.84
2017-01-25T07:57:52.529Z,1005.87
2017-01-25T07:58:52.552Z,1005.85
2017-01-25T07:59:52.577Z,1005.88
2017-01-25T08:00:52.605Z,1005.84
2017-01-25T08:01:52.627Z,1005.82
2017-01-25T08:02:52.656Z,1005.84
2017-01-25T08:03:52.707Z,1005.87
2017-01-25T08:04:52.701Z,1005.88
2017-01-25T08:05:52.730Z,1005.86
2017-01-25T08:06:52.750Z,1005.88
2017-01-25T08:07:52.780Z,1005.87
2017-01-25T08:08:52.804Z,1005.85
2017-01-25T08:09:52.829Z,1005.86
2017-01-25T08:10:52.853Z,1005.84
2017-01-25T08:11:52.878Z,1005.82
2017-01-25T08:12:52.902Z,1005.89
2017-01-25T08:13:52.932Z,1005.88
2017-01-25T08:14:52.952Z,1005.91
2017-01-25T08:15:52.977Z,1005.86
2017-01-25T08:16:53.006Z,1005.91
2017-01-25T08:17:53.063Z,1005.87
2017-01-25T08:18:53.055Z,1005.86
2017-01-25T08:19:53.081Z,1005.9
2017-01-25T08:20:53.103Z,1005.89
2017-01-25T08:21:53.129Z,1005.92
2017-01-25T08:22:53.156Z,1005.91
2017-01-25T08:23:53.179Z,1005.89
2017-01-25T08:24:53.207Z,1005.92
2017-01-25T08:25:53.228Z,1005.9
2017-01-25T08:26:53.252Z,1005.89
2017-01-25T08:27:53.281Z,1005.89
2017-01-25T08:28:53.307Z,1005.9
2017-01-25T08:29:53.331Z,1005.9
2017-01-25T08:30:53.355Z,1005.95
2017-01-25T08:31:53.380Z,1005.95
2017-01-25T08:32:53.405Z,1005.96
2017-01-25T08:33:53.425Z,1005.91
2017-01-25T08:34:53.454Z,1005.91
2017-01-25T08:35:53.478Z,1005.89
2017-01-25T08:36:53.504Z,1005.92
2017-01-25T08:37:53.528Z,1005.93
2017-01-25T08:38:53.557Z,1005.88
2017-01-25T08:39:53.581Z,1005.91
2017-01-25T08:40:53.606Z,1005.92
2017-01-25T08:41:53.631Z,1005.91
2017-01-25T08:42:53.655Z,1005.93
2017-01-25T08:43:53.680Z,1005.93
2017-01-25T08:44:53.700Z,1005.9
2017-01-25T08:45:53.730Z,1005.92
2017-01-25T08:46:54.005Z,1005.95
2017-01-25T08:47:53.783Z,1005.95
2017-01-25T08:48:53.804Z,1005.89
2017-01-25T08:49:53.829Z,1005.93
2017-01-25T08:50:53.853Z,1005.91
2017-01-25T08:51:54.134Z,1005.9
2017-01-25T08:52:53.907Z,1005.91
2017-01-25T08:53:53.933Z,1005.9
2017-01-25T08:54:53.956Z,1005.96
2017-01-25T08:55:53.981Z,1005.97
2017-01-25T08:56:54.257Z,1006.04
2017-01-25T08:57:54.030Z,1006.02
2017-01-25T08:58:54.055Z,1005.99
2017-01-25T08:59:54.080Z,1005.98
2017-01-25T09:00:54.105Z,1006.04
2017-01-25T09:01:54.380Z,1006.12
2017-01-25T09:02:54.154Z,1006.08
2017-01-25T09:03:54.179Z,1006.09
2017-01-25T09:04:54.204Z,1006.12
2017-01-25T09:05:54.227Z,1006.05
2017-01-25T09:06:54.504Z,1006.14
2017-01-25T09:07:54.282Z,1006.17
2017-01-25T09:08:54.307Z,1006.19
2017-01-25T09:09:54.328Z,1006.16
2017-01-25T09:10:54.356Z,1006.17
2017-01-25T09:11:54.635Z,1006.23
2017-01-25T09:12:54.408Z,1006.15
2017-01-25T09:13:54.426Z,1006.19
2017-01-25T09:14:54.454Z,1006.15
2017-01-25T09:15:54.480Z,1006.25
2017-01-25T09:16:54.755Z,1006.24
2017-01-25T09:17:54.527Z,1006.26
2017-01-25T09:18:54.556Z,1006.26
2017-01-25T09:19:54.580Z,1006.27
2017-01-25T09:20:54.604Z,1006.29
2017-01-25T09:21:54.628Z,1006.29
2017-01-25T09:22:54.653Z,1006.3
2017-01-25T09:23:54.679Z,1006.25
2017-01-25T09:24:54.702Z,1006.26
2017-01-25T09:25:54.728Z,1006.26
2017-01-25T09:26:54.753Z,1006.29
2017-01-25T09:27:54.777Z,1006.21
2017-01-25T09:28:54.802Z,1006.27
2017-01-25T09:29:54.827Z,1006.23
2017-01-25T09:30:54.856Z,1006.31
2017-01-25T09:31:54.876Z,1006.32
2017-01-25T09:32:54.904Z,1006.29
2017-01-25T09:33:54.929Z,1006.34
2017-01-25T09:34:54.954Z,1006.36
2017-01-25T09:35:54.978Z,1006.35
2017-01-25T09:36:55.000Z,1006.34
2017-01-25T09:37:55.279Z,1006.36
2017-01-25T09:38:55.053Z,1006.38
2017-01-25T09:39:55.079Z,1006.39
2017-01-25T09:40:55.101Z,1006.33
2017-01-25T09:41:55.127Z,1006.35
2017-01-25T09:42:55.401Z,1006.36
2017-01-25T09:43:55.177Z,1006.33
2017-01-25T09:44:55.203Z,1006.35
2017-01-25T09:45:55.227Z,1006.34
2017-01-25T09:46:55.251Z,1006.34
2017-01-25T09:47:55.532Z,1006.4
2017-01-25T09:48:55.303Z,1006.35
2017-01-25T09:49:55.325Z,1006.35
2017-01-25T09:50:55.355Z,1006.33
2017-01-25T09:51:55.375Z,1006.34
2017-01-25T09:52:55.651Z,1006.4
2017-01-25T09:53:55.425Z,1006.37
2017-01-25T09:54:55.450Z,1006.44
2017-01-25T09:55:55.477Z,1006.43
2017-01-25T09:56:55.498Z,1006.43
2017-01-25T09:57:55.771Z,1006.45
2017-01-25T09:58:55.549Z,1006.43
2017-01-25T09:59:55.573Z,1006.44
2017-01-25T10:00:55.598Z,1006.41
2017-01-25T10:01:55.623Z,1006.44
2017-01-25T10:02:55.648Z,1006.39
2017-01-25T10:03:55.674Z,1006.4
2017-01-25T10:04:55.696Z,1006.36
2017-01-25T10:05:55.721Z,1006.35
2017-01-25T10:06:55.746Z,1006.36
2017-01-25T10:07:55.772Z,1006.38
2017-01-25T10:08:55.796Z,1006.3
2017-01-25T10:09:55.820Z,1006.36
2017-01-25T10:10:55.845Z,1006.38
2017-01-25T10:11:55.867Z,1006.36
2017-01-25T10:12:55.900Z,1006.39
2017-01-25T10:13:55.919Z,1006.35
2017-01-25T10:14:55.945Z,1006.36
2017-01-25T10:15:55.968Z,1006.31
2017-01-25T10:16:55.993Z,1006.34
2017-01-25T10:17:56.023Z,1006.34
2017-01-25T10:20:10.155Z,1006.34
2017-01-25T10:21:10.178Z,1006.33
2017-01-25T10:22:10.204Z,1006.35
2017-01-25T10:23:23.776Z,1006.29
2017-01-25T10:24:23.547Z,1006.34
2017-01-25T10:25:23.575Z,1006.32
2017-01-25T10:26:23.601Z,1006.33
2017-01-25T10:27:23.627Z,1006.27
2017-01-25T10:28:23.649Z,1006.29
2017-01-25T10:29:23.674Z,1006.29
2017-01-25T10:30:23.699Z,1006.32
2017-01-25T10:31:23.724Z,1006.29
2017-01-25T10:32:23.746Z,1006.22
2017-01-25T10:33:23.773Z,1006.23
2017-01-25T10:34:23.799Z,1006.26
2017-01-25T10:35:23.823Z,1006.22
2017-01-25T10:36:23.847Z,1006.16
2017-01-25T10:37:23.873Z,1006.18
2017-01-25T10:38:23.897Z,1006.18
2017-01-25T10:39:23.921Z,1006.18
2017-01-25T10:40:23.947Z,1006.17
2017-01-25T10:41:23.971Z,1006.19
2017-01-25T10:42:23.996Z,1006.13
2017-01-25T10:43:24.020Z,1006.07
2017-01-25T10:44:24.041Z,1006.1
2017-01-25T10:45:24.069Z,1006.14
2017-01-25T10:46:24.094Z,1006.06
2017-01-25T10:47:24.122Z,1006.01
2017-01-25T10:48:24.144Z,1006.02
2017-01-25T10:49:24.168Z,1006.01
2017-01-25T10:50:24.193Z,1006.01
2017-01-25T10:51:24.218Z,1005.99
2017-01-25T10:52:24.242Z,1006
2017-01-25T10:53:24.267Z,1005.96
2017-01-25T10:54:24.544Z,1005.99
2017-01-25T10:55:24.321Z,1005.98
2017-01-25T10:56:24.337Z,1005.92
2017-01-25T10:57:24.366Z,1005.94
2017-01-25T10:58:24.390Z,1005.96
2017-01-25T10:59:24.664Z,1005.94
2017-01-25T11:00:24.440Z,1005.91
2017-01-25T11:01:24.465Z,1005.86
2017-01-25T11:02:24.491Z,1005.82
2017-01-25T11:03:24.516Z,1005.85
2017-01-25T11:04:24.793Z,1005.84
2017-01-25T11:05:24.563Z,1005.78
2017-01-25T11:06:24.589Z,1005.72
2017-01-25T11:07:24.613Z,1005.8
2017-01-25T11:08:24.638Z,1005.74
2017-01-25T11:09:24.663Z,1005.75
2017-01-25T11:10:24.687Z,1005.69
2017-01-25T11:11:24.713Z,1005.67
2017-01-25T11:12:24.734Z,1005.64
2017-01-25T11:13:24.761Z,1005.62
2017-01-25T11:14:24.786Z,1005.65
2017-01-25T11:15:24.810Z,1005.63
2017-01-25T11:16:24.836Z,1005.61
2017-01-25T11:17:24.860Z,1005.59
2017-01-25T11:18:24.885Z,1005.54
2017-01-25T11:19:24.910Z,1005.54
2017-01-25T11:20:24.935Z,1005.53
2017-01-25T11:21:24.956Z,1005.55
2017-01-25T11:22:24.984Z,1005.51
2017-01-25T11:23:25.009Z,1005.54
2017-01-25T11:24:25.033Z,1005.47
2017-01-25T11:25:25.058Z,1005.47
2017-01-25T11:26:25.082Z,1005.43
2017-01-25T11:27:25.108Z,1005.44
2017-01-25T11:28:25.132Z,1005.39
2017-01-25T11:29:25.160Z,1005.31
2017-01-25T11:30:25.182Z,1005.3
2017-01-25T11:31:25.202Z,1005.37
2017-01-25T11:32:25.232Z,1005.35
2017-01-25T11:33:25.256Z,1005.3
2017-01-25T11:34:25.281Z,1005.34
2017-01-25T11:35:25.305Z,1005.29
2017-01-25T11:36:25.330Z,1005.26
2017-01-25T11:37:25.356Z,1005.29
2017-01-25T11:38:25.380Z,1005.26
2017-01-25T11:39:25.404Z,1005.26
2017-01-25T11:40:25.429Z,1005.28
2017-01-25T11:41:25.453Z,1005.28
2017-01-25T11:42:25.479Z,1005.23
2017-01-25T11:43:25.502Z,1005.26
2017-01-25T11:44:25.527Z,1005.25
2017-01-25T11:45:25.803Z,1005.22
2017-01-25T11:46:25.579Z,1005.17
2017-01-25T11:47:25.602Z,1005.2
2017-01-25T11:48:25.628Z,1005.22
2017-01-25T11:49:25.653Z,1005.27
2017-01-25T11:50:25.677Z,1005.27
2017-01-25T11:51:25.701Z,1005.28
2017-01-25T11:52:25.727Z,1005.29
2017-01-25T11:53:25.750Z,1005.26
2017-01-25T11:54:25.774Z,1005.28
2017-01-25T11:55:25.800Z,1005.27
2017-01-25T11:56:25.827Z,1005.25
2017-01-25T11:57:25.850Z,1005.24
2017-01-25T11:58:25.874Z,1005.19
2017-01-25T11:59:25.899Z,1005.19
2017-01-25T12:00:25.918Z,1005.21
2017-01-25T12:01:25.949Z,1005.19
2017-01-25T12:02:25.973Z,1005.18
2017-01-25T12:03:25.998Z,1005.17
2017-01-25T12:04:26.022Z,1005.17
2017-01-25T12:05:26.051Z,1005.18
2017-01-25T12:06:26.333Z,1005.16
2017-01-25T12:07:26.098Z,1005.11
2017-01-25T12:08:26.121Z,1005.08
2017-01-25T12:09:26.147Z,1005.11
2017-01-25T12:10:26.170Z,1005.09